createdAt,value
2022-12-17T00:01:27.476Z,37.83
2022-12-17T00:04:15.698Z,42.80
2022-12-17T00:07:04.003Z,39.00
2022-12-17T00:09:52.490Z,38.00
2022-12-17T00:12:40.597Z,42.20
2022-12-17T00:15:29.769Z,42.37
2022-12-17T00:18:23.929Z,33.67
2022-12-17T00:21:16.483Z,35.43
2022-12-17T00:24:06.125Z,36.57
2022-12-17T00:26:54.597Z,35.87
2022-12-17T00:29:44.610Z,43.27
2022-12-17T00:32:32.581Z,44.10
2022-12-17T00:35:20.601Z,50.70
2022-12-17T00:38:08.914Z,57.30
2022-12-17T00:43:58.181Z,48.07
2022-12-17T00:46:46.668Z,53.87
2022-12-17T00:49:35.076Z,52.57
2022-12-17T00:52:23.199Z,50.67
2022-12-17T00:55:11.250Z,48.60
2022-12-17T00:57:59.374Z,43.97
2022-12-17T01:00:47.606Z,47.80
2022-12-17T01:03:36.274Z,45.40
2022-12-17T01:06:25.382Z,39.47
2022-12-17T01:09:13.632Z,48.70
2022-12-17T01:12:01.974Z,50.63
2022-12-17T01:14:50.026Z,46.23
2022-12-17T01:17:38.072Z,46.60
2022-12-17T01:20:28.653Z,42.40
2022-12-17T01:23:16.795Z,42.60
2022-12-17T01:26:12.206Z,44.03
2022-12-17T01:29:01.071Z,53.37
2022-12-17T01:32:05.718Z,48.57
2022-12-17T01:37:31.655Z,45.47
2022-12-17T01:40:20.130Z,46.10
2022-12-17T01:43:08.106Z,46.90
2022-12-17T01:45:59.489Z,44.10
2022-12-17T01:48:51.221Z,42.70
2022-12-17T01:51:40.431Z,43.07
2022-12-17T01:54:28.944Z,46.33
2022-12-17T01:57:27.276Z,41.27
2022-12-17T02:00:18.308Z,45.67
2022-12-17T02:03:06.610Z,47.23
2022-12-17T02:05:58.104Z,40.60
2022-12-17T02:08:51.282Z,39.97
2022-12-17T02:11:42.294Z,46.33
2022-12-17T02:14:33.898Z,41.37
2022-12-17T02:17:24.876Z,40.53
2022-12-17T02:20:16.797Z,44.50
2022-12-17T02:23:12.575Z,44.57
2022-12-17T02:26:03.688Z,43.20
2022-12-17T02:28:53.753Z,47.77
2022-12-17T02:31:43.331Z,49.43
2022-12-17T02:34:31.739Z,42.03
2022-12-17T02:37:19.983Z,41.63
2022-12-17T02:40:09.551Z,45.53
2022-12-17T02:43:02.140Z,40.83
2022-12-17T02:45:51.144Z,42.17
2022-12-17T02:48:39.775Z,40.27
2022-12-17T02:51:28.620Z,44.37
2022-12-17T02:54:17.951Z,40.33
2022-12-17T02:57:05.975Z,42.90
2022-12-17T02:59:54.181Z,45.43
2022-12-17T03:05:46.352Z,45.50
2022-12-17T03:08:29.420Z,45.67
2022-12-17T03:11:28.183Z,42.43
2022-12-17T03:14:16.337Z,43.37
2022-12-17T03:17:04.921Z,46.97
2022-12-17T03:19:53.198Z,43.60
2022-12-17T03:25:48.534Z,38.77
2022-12-17T03:28:36.588Z,43.03
2022-12-17T03:31:26.415Z,46.63
2022-12-17T03:34:14.875Z,45.90
2022-12-17T03:37:03.000Z,38.47
2022-12-17T03:39:51.187Z,43.90
2022-12-17T03:42:39.390Z,43.47
2022-12-17T03:45:36.662Z,43.63
2022-12-17T03:48:28.461Z,43.43
2022-12-17T03:51:17.923Z,47.20
2022-12-17T03:54:05.963Z,45.20
2022-12-17T03:56:54.191Z,44.37
2022-12-17T03:59:42.287Z,46.43
2022-12-17T04:02:30.442Z,40.27
2022-12-17T04:05:20.552Z,41.53
2022-12-17T04:08:27.077Z,36.77
2022-12-17T04:11:15.687Z,41.27
2022-12-17T04:14:03.716Z,38.90
2022-12-17T04:17:10.419Z,38.70
2022-12-17T04:19:58.544Z,38.37
2022-12-17T04:22:46.700Z,43.80
2022-12-17T04:25:35.534Z,41.90
2022-12-17T04:28:23.717Z,38.47
2022-12-17T04:31:11.999Z,36.70
2022-12-17T04:34:19.028Z,32.60
2022-12-17T04:37:07.423Z,37.10
2022-12-17T04:40:11.965Z,35.57
2022-12-17T04:45:39.836Z,32.70
2022-12-17T04:48:29.562Z,38.13
2022-12-17T04:51:36.189Z,39.23
2022-12-17T04:54:25.011Z,38.07
2022-12-17T04:57:13.256Z,42.10
2022-12-17T05:00:02.742Z,41.77
2022-12-17T05:02:51.062Z,43.13
2022-12-17T05:05:39.558Z,44.60
2022-12-17T05:08:27.909Z,44.07
2022-12-17T05:11:20.970Z,43.23
2022-12-17T05:14:08.996Z,47.40
2022-12-17T05:16:57.061Z,42.10
2022-12-17T05:19:45.321Z,44.63
2022-12-17T05:22:33.651Z,39.27
2022-12-17T05:25:22.369Z,41.33
2022-12-17T05:28:10.503Z,45.33
2022-12-17T05:31:01.671Z,44.23
2022-12-17T05:33:49.843Z,40.20
2022-12-17T05:36:37.960Z,39.87
2022-12-17T05:39:26.340Z,39.50
2022-12-17T05:42:14.448Z,41.70
2022-12-17T05:45:02.543Z,39.20
2022-12-17T05:47:50.732Z,39.83
2022-12-17T05:50:40.426Z,41.73
2022-12-17T05:53:47.365Z,51.40
2022-12-17T05:56:42.839Z,44.10
2022-12-17T05:59:31.041Z,44.63
2022-12-17T06:02:19.085Z,48.40
2022-12-17T06:05:07.490Z,44.00
2022-12-17T06:07:58.550Z,39.10
2022-12-17T06:10:47.483Z,38.67
2022-12-17T06:13:36.026Z,38.43
2022-12-17T06:16:25.502Z,43.20
2022-12-17T06:19:14.871Z,38.37
2022-12-17T06:22:21.681Z,39.17
2022-12-17T06:25:10.130Z,42.67
2022-12-17T06:28:18.027Z,38.40
2022-12-17T06:33:50.120Z,39.77
2022-12-17T06:36:45.511Z,42.57
2022-12-17T06:39:33.547Z,43.87
2022-12-17T06:42:21.713Z,38.73
2022-12-17T06:45:10.025Z,42.13
2022-12-17T06:47:58.371Z,38.97
2022-12-17T06:50:46.821Z,37.40
2022-12-17T06:53:35.259Z,45.50
2022-12-17T06:56:26.173Z,41.90
2022-12-17T07:02:15.769Z,36.87
2022-12-17T07:05:04.204Z,42.93
2022-12-17T07:07:52.286Z,39.83
2022-12-17T07:10:40.832Z,38.23
2022-12-17T07:13:29.338Z,37.00
2022-12-17T07:16:17.398Z,35.20
2022-12-17T07:19:06.058Z,40.30
2022-12-17T07:21:54.793Z,38.63
2022-12-17T07:24:42.726Z,40.50
2022-12-17T07:27:31.074Z,36.50
2022-12-17T07:30:19.284Z,38.03
2022-12-17T07:33:08.804Z,41.53
2022-12-17T07:35:57.305Z,32.40
2022-12-17T07:38:45.374Z,35.80
2022-12-17T07:41:33.432Z,30.97
2022-12-17T07:44:21.528Z,33.67
2022-12-17T07:47:09.690Z,35.87
2022-12-17T07:49:57.829Z,32.20
2022-12-17T07:52:50.065Z,30.90
2022-12-17T07:55:40.871Z,31.80
2022-12-17T07:58:31.331Z,34.13
2022-12-17T08:01:21.417Z,32.53
2022-12-17T08:04:09.954Z,33.40
2022-12-17T08:07:04.111Z,29.67
2022-12-17T08:09:49.138Z,34.57
2022-12-17T08:12:37.268Z,24.93
2022-12-17T08:18:06.703Z,34.97
2022-12-17T08:21:14.856Z,33.23
2022-12-17T08:26:44.271Z,34.27
2022-12-17T08:29:30.283Z,30.87
2022-12-17T08:32:18.419Z,32.80
2022-12-17T08:35:06.777Z,32.17
2022-12-17T08:37:54.860Z,32.10
2022-12-17T08:40:43.333Z,32.47
2022-12-17T08:43:31.426Z,32.60
2022-12-17T08:46:19.801Z,30.97
2022-12-17T08:49:08.370Z,26.40
2022-12-17T08:51:56.483Z,29.27
2022-12-17T08:54:44.951Z,28.20
2022-12-17T08:57:51.681Z,24.20
2022-12-17T09:00:40.441Z,27.77
2022-12-17T09:03:29.202Z,28.77
2022-12-17T09:06:39.372Z,29.17
2022-12-17T09:09:28.197Z,23.53
2022-12-17T09:12:16.356Z,25.03
2022-12-17T09:15:05.206Z,26.87
2022-12-17T09:17:53.661Z,24.23
2022-12-17T09:20:43.667Z,25.27
2022-12-17T09:23:35.142Z,24.23
2022-12-17T09:26:23.914Z,19.60
2022-12-17T09:29:12.549Z,28.77
2022-12-17T09:32:32.844Z,23.77
2022-12-17T09:35:21.080Z,24.03
2022-12-17T09:38:12.662Z,20.97
2022-12-17T09:41:06.554Z,24.80
2022-12-17T09:46:42.289Z,21.10
2022-12-17T09:49:36.251Z,25.97
2022-12-17T09:52:33.001Z,23.67
2022-12-17T09:55:26.314Z,20.37
2022-12-17T09:58:15.227Z,18.50
2022-12-17T10:04:04.793Z,21.10
2022-12-17T10:06:54.272Z,18.57
2022-12-17T10:09:45.188Z,20.00
2022-12-17T10:12:37.627Z,19.03
2022-12-17T10:15:30.849Z,20.63
2022-12-17T10:18:21.829Z,17.97
2022-12-17T10:21:14.014Z,19.93
2022-12-17T10:24:02.751Z,22.13
2022-12-17T10:26:53.457Z,18.53
2022-12-17T10:29:47.704Z,21.67
2022-12-17T10:32:52.945Z,21.53
2022-12-17T10:35:43.878Z,19.67
2022-12-17T10:38:34.652Z,19.40
2022-12-17T10:41:23.221Z,16.97
2022-12-17T10:44:11.628Z,15.70
2022-12-17T10:50:27.494Z,16.83
2022-12-17T10:53:28.293Z,20.53
2022-12-17T10:56:17.451Z,20.93
2022-12-17T10:59:08.064Z,18.00
2022-12-17T11:01:58.158Z,18.90
2022-12-17T11:04:49.276Z,19.30
2022-12-17T11:10:20.513Z,18.97
2022-12-17T11:13:11.420Z,20.97
2022-12-17T11:16:12.202Z,19.17
2022-12-17T11:19:04.456Z,18.07
2022-12-17T11:21:55.862Z,19.50
2022-12-17T11:24:47.097Z,21.17
2022-12-17T11:27:39.412Z,17.40
2022-12-17T11:33:20.678Z,18.80
2022-12-17T11:36:13.341Z,17.10
2022-12-17T11:39:04.922Z,20.07
2022-12-17T11:41:58.496Z,15.77
2022-12-17T11:44:54.006Z,18.53
2022-12-17T11:47:46.960Z,20.60
2022-12-17T11:50:41.962Z,13.63
2022-12-17T11:53:41.164Z,19.57
2022-12-17T11:56:50.120Z,18.90
2022-12-17T11:59:46.766Z,16.53
2022-12-17T12:02:39.381Z,14.93
2022-12-17T12:05:36.155Z,19.07
2022-12-17T12:08:29.482Z,20.47
2022-12-17T12:11:21.351Z,16.63
2022-12-17T12:14:12.517Z,18.40
2022-12-17T12:17:04.179Z,19.40
2022-12-17T12:20:02.886Z,20.13
2022-12-17T12:22:54.050Z,14.63
2022-12-17T12:28:34.474Z,16.07
2022-12-17T12:31:26.259Z,17.17
2022-12-17T12:34:18.441Z,20.60
2022-12-17T12:39:50.503Z,19.97
2022-12-17T12:42:42.324Z,16.83
2022-12-17T12:45:39.893Z,17.97
2022-12-17T12:51:13.608Z,21.03
2022-12-17T12:54:01.766Z,17.70
2022-12-17T12:56:53.608Z,18.77
2022-12-17T12:59:46.779Z,19.27
2022-12-17T13:02:49.356Z,18.57
2022-12-17T13:05:34.932Z,15.00
2022-12-17T13:08:08.962Z,16.10
2022-12-17T13:10:41.012Z,17.47
2022-12-17T13:15:55.865Z,21.03
2022-12-17T13:18:34.608Z,17.27
2022-12-17T13:21:08.347Z,19.30
2022-12-17T13:23:40.067Z,18.50
2022-12-17T13:26:24.357Z,16.13
2022-12-17T13:29:14.285Z,18.80
2022-12-17T13:31:55.916Z,14.20
2022-12-17T13:37:12.003Z,18.87
2022-12-17T13:39:46.114Z,16.40
2022-12-17T13:42:26.300Z,17.40
2022-12-17T13:44:57.796Z,18.57
2022-12-17T13:47:30.763Z,18.00
2022-12-17T13:50:32.916Z,18.83
2022-12-17T13:52:36.146Z,18.13
2022-12-17T13:55:12.480Z,17.77
2022-12-17T13:57:47.371Z,16.83
2022-12-17T14:00:25.690Z,17.13
2022-12-17T14:02:57.926Z,19.10
2022-12-17T14:05:31.621Z,16.13
2022-12-17T14:08:04.645Z,16.67
2022-12-17T14:10:35.738Z,17.00
2022-12-17T14:13:10.745Z,17.03
2022-12-17T14:15:42.954Z,19.20
2022-12-17T14:18:15.849Z,17.40
2022-12-17T14:20:47.246Z,16.10
2022-12-17T14:23:22.389Z,18.27
2022-12-17T14:25:54.321Z,16.33
2022-12-17T14:28:28.040Z,18.50
2022-12-17T14:33:41.837Z,17.77
2022-12-17T14:36:20.784Z,19.77
2022-12-17T14:38:57.719Z,17.17
2022-12-17T14:41:48.002Z,20.67
2022-12-17T14:44:23.363Z,18.67
2022-12-17T14:46:56.526Z,18.00
2022-12-17T14:49:27.331Z,18.47
2022-12-17T14:52:00.400Z,17.53
2022-12-17T14:54:33.277Z,18.23
2022-12-17T14:57:10.355Z,16.27
2022-12-17T14:59:43.372Z,16.00
2022-12-17T15:02:23.527Z,17.60
2022-12-17T15:04:56.946Z,17.57
2022-12-17T15:07:29.606Z,19.70
2022-12-17T15:10:05.315Z,20.90
2022-12-17T15:15:16.678Z,16.93
2022-12-17T15:17:47.898Z,18.23
2022-12-17T15:20:21.509Z,17.33
2022-12-17T15:22:52.371Z,18.17
2022-12-17T15:25:23.874Z,16.70
2022-12-17T15:27:55.660Z,18.80
2022-12-17T15:30:27.493Z,18.07
2022-12-17T15:32:58.324Z,16.77
2022-12-17T15:35:29.020Z,17.20
2022-12-17T15:37:59.764Z,19.73
2022-12-17T15:40:30.758Z,18.10
2022-12-17T15:43:14.018Z,17.70
2022-12-17T15:45:45.967Z,17.87
2022-12-17T15:48:18.313Z,20.13
2022-12-17T15:50:49.306Z,19.20
2022-12-17T15:53:20.275Z,17.00
2022-12-17T15:55:51.010Z,17.90
2022-12-17T15:58:21.765Z,17.03
2022-12-17T16:00:52.554Z,15.87
2022-12-17T16:03:23.930Z,17.07
2022-12-17T16:05:54.629Z,17.63
2022-12-17T16:08:25.468Z,26.97
2022-12-17T16:10:56.198Z,20.87
2022-12-17T16:13:26.938Z,21.57
2022-12-17T16:16:03.841Z,19.20
2022-12-17T16:18:33.202Z,18.47
2022-12-17T16:21:09.915Z,19.37
2022-12-17T16:23:40.674Z,18.77
2022-12-17T16:26:12.552Z,17.73
2022-12-17T16:28:43.365Z,19.90
2022-12-17T16:31:16.657Z,17.50
2022-12-17T16:36:27.706Z,16.97
2022-12-17T16:38:59.229Z,21.93
2022-12-17T16:41:30.288Z,20.70
2022-12-17T16:44:01.800Z,19.17
2022-12-17T16:46:35.984Z,21.17
2022-12-17T16:49:10.931Z,24.27
2022-12-17T16:51:43.165Z,19.03
2022-12-17T16:54:17.850Z,18.53
2022-12-17T16:56:49.227Z,25.00
2022-12-17T16:59:20.870Z,23.67
2022-12-17T17:01:53.677Z,22.73
2022-12-17T17:04:26.370Z,20.10
2022-12-17T17:06:58.776Z,17.77
2022-12-17T17:09:29.984Z,20.07
2022-12-17T17:12:01.070Z,20.77
2022-12-17T17:14:31.960Z,23.07
2022-12-17T17:17:02.791Z,23.83
2022-12-17T17:19:33.719Z,26.93
2022-12-17T17:22:04.544Z,22.20
2022-12-17T17:24:35.335Z,20.77
2022-12-17T17:27:07.245Z,23.23
2022-12-17T17:29:38.010Z,19.47
2022-12-17T17:32:11.036Z,19.73
2022-12-17T17:37:30.697Z,28.20
2022-12-17T17:40:02.214Z,29.43
2022-12-17T17:42:33.827Z,25.87
2022-12-17T17:45:04.653Z,22.57
2022-12-17T17:47:35.390Z,25.77
2022-12-17T17:50:07.465Z,31.67
2022-12-17T17:55:17.870Z,21.30
2022-12-17T17:57:50.009Z,24.87
2022-12-17T18:00:39.587Z,25.03
2022-12-17T18:03:10.521Z,22.70
2022-12-17T18:05:42.801Z,22.80
2022-12-17T18:08:13.844Z,23.47
2022-12-17T18:10:44.771Z,23.93
2022-12-17T18:13:33.147Z,27.63
2022-12-17T18:16:04.457Z,26.27
2022-12-17T18:18:35.827Z,23.97
2022-12-17T18:21:09.872Z,25.97
2022-12-17T18:23:40.723Z,26.17
2022-12-17T18:26:14.195Z,26.07
2022-12-17T18:28:46.587Z,29.40
2022-12-17T18:31:19.462Z,24.80
2022-12-17T18:33:52.991Z,25.50
2022-12-17T18:36:27.275Z,25.80
2022-12-17T18:39:02.834Z,26.60
2022-12-17T18:41:51.272Z,28.17
2022-12-17T18:44:22.321Z,22.47
2022-12-17T18:46:53.317Z,26.77
2022-12-17T18:49:27.305Z,26.73
2022-12-17T18:51:58.537Z,22.73
2022-12-17T18:54:31.366Z,22.53
2022-12-17T18:57:02.707Z,24.63
2022-12-17T18:59:34.903Z,30.30
2022-12-17T19:02:05.965Z,24.60
2022-12-17T19:04:37.165Z,26.40
2022-12-17T19:07:08.095Z,21.43
2022-12-17T19:09:40.837Z,27.80
2022-12-17T19:12:12.721Z,29.87
2022-12-17T19:14:43.680Z,26.87
2022-12-17T19:17:14.464Z,27.00
2022-12-17T19:19:45.392Z,23.37
2022-12-17T19:22:16.194Z,27.17
2022-12-17T19:24:47.434Z,21.17
2022-12-17T19:27:18.071Z,24.17
2022-12-17T19:29:49.982Z,23.83
2022-12-17T19:32:21.131Z,22.80
2022-12-17T19:34:51.963Z,28.30
2022-12-17T19:37:22.744Z,25.73
2022-12-17T19:39:53.527Z,25.87
2022-12-17T19:42:34.982Z,28.67
2022-12-17T19:45:00.201Z,33.77
2022-12-17T19:47:31.674Z,27.83
2022-12-17T19:50:02.465Z,26.27
2022-12-17T19:52:33.211Z,22.50
2022-12-17T19:55:04.330Z,25.53
2022-12-17T19:57:36.529Z,25.27
2022-12-17T20:00:09.347Z,28.50
2022-12-17T20:02:40.584Z,25.40
2022-12-17T20:05:12.730Z,36.00
2022-12-17T20:07:43.391Z,36.33
2022-12-17T20:12:53.641Z,30.77
2022-12-17T20:15:24.521Z,28.33
2022-12-17T20:17:55.289Z,25.03
2022-12-17T20:20:27.585Z,25.93
2022-12-17T20:22:58.474Z,25.97
2022-12-17T20:25:29.588Z,31.20
2022-12-17T20:28:00.733Z,27.87
2022-12-17T20:30:31.838Z,34.83
2022-12-17T20:33:02.630Z,24.70
2022-12-17T20:35:33.697Z,35.23
2022-12-17T20:38:04.607Z,28.50
2022-12-17T20:40:35.452Z,26.57
2022-12-17T20:43:06.299Z,24.77
2022-12-17T20:45:37.157Z,30.70
2022-12-17T20:50:47.524Z,23.40
2022-12-17T20:53:18.175Z,26.33
2022-12-17T20:55:49.067Z,26.97
2022-12-17T20:58:19.825Z,30.00
2022-12-17T21:00:50.653Z,26.07
2022-12-17T21:03:21.538Z,27.13
2022-12-17T21:05:52.323Z,31.10
2022-12-17T21:08:22.998Z,32.40
2022-12-17T21:10:59.491Z,30.53
2022-12-17T21:13:30.277Z,35.20
2022-12-17T21:16:02.954Z,26.67
2022-12-17T21:18:34.739Z,26.13
2022-12-17T21:21:08.505Z,31.80
2022-12-17T21:23:40.312Z,28.50
2022-12-17T21:26:13.490Z,31.37
2022-12-17T21:28:46.149Z,27.33
2022-12-17T21:31:21.574Z,25.90
2022-12-17T21:33:54.039Z,28.17
2022-12-17T21:36:26.026Z,31.07
2022-12-17T21:38:57.155Z,33.20
2022-12-17T21:41:30.079Z,31.57
2022-12-17T21:44:02.774Z,31.37
2022-12-17T21:46:33.619Z,38.20
2022-12-17T21:49:05.657Z,32.57
2022-12-17T21:51:36.596Z,33.00
2022-12-17T21:54:08.629Z,28.43
2022-12-17T21:56:39.810Z,30.70
2022-12-17T21:59:12.391Z,29.17
2022-12-17T22:01:43.373Z,27.07
2022-12-17T22:07:01.388Z,29.00
2022-12-17T22:09:37.071Z,32.37
2022-12-17T22:12:17.538Z,28.57
2022-12-17T22:14:49.528Z,31.00
2022-12-17T22:17:20.201Z,36.27
2022-12-17T22:19:50.960Z,31.63
2022-12-17T22:22:21.653Z,30.13
2022-12-17T22:24:52.385Z,30.80
2022-12-17T22:27:23.198Z,31.43
2022-12-17T22:30:11.362Z,30.33
2022-12-17T22:32:59.514Z,31.07
2022-12-17T22:38:04.714Z,27.27
2022-12-17T22:40:40.854Z,27.40
2022-12-17T22:44:39.292Z,25.67
2022-12-17T22:44:45.957Z,24.80
2022-12-17T22:46:23.481Z,30.43
2022-12-17T22:48:54.426Z,27.67
2022-12-17T22:51:31.763Z,25.13
2022-12-17T22:53:57.802Z,24.63
2022-12-17T22:56:51.985Z,25.60
2022-12-17T22:59:00.912Z,31.53
2022-12-17T23:01:31.826Z,25.90
2022-12-17T23:04:03.692Z,30.73
2022-12-17T23:06:34.736Z,26.13
2022-12-17T23:09:05.375Z,30.53
2022-12-17T23:11:36.249Z,28.73
2022-12-17T23:14:10.189Z,31.07
2022-12-17T23:16:42.689Z,30.50
2022-12-17T23:19:13.761Z,31.47
2022-12-17T23:21:44.407Z,34.00
2022-12-17T23:24:15.066Z,28.60
2022-12-17T23:26:45.685Z,30.10
2022-12-17T23:29:19.551Z,29.17
2022-12-17T23:31:50.094Z,31.33
2022-12-17T23:34:20.914Z,33.80
2022-12-17T23:36:51.589Z,27.17
2022-12-17T23:39:22.217Z,31.53
2022-12-17T23:41:54.442Z,28.47
2022-12-17T23:44:25.339Z,30.57
2022-12-17T23:46:56.097Z,33.27
2022-12-17T23:49:27.006Z,36.17
2022-12-17T23:51:57.795Z,29.03
2022-12-17T23:54:28.693Z,32.43
2022-12-17T23:56:59.320Z,31.17
2022-12-17T23:59:30.253Z,30.30
